createdAt,value
2023-03-06T00:02:14.348Z,26.65
2023-03-06T00:04:42.606Z,24.15
2023-03-06T00:07:10.201Z,28.67
2023-03-06T00:09:37.713Z,26.45
2023-03-06T00:12:05.091Z,24.75
2023-03-06T00:14:32.027Z,24.17
2023-03-06T00:16:59.373Z,24.13
2023-03-06T00:19:26.416Z,22.25
2023-03-06T00:21:53.608Z,28.13
2023-03-06T00:24:20.722Z,28.85
2023-03-06T00:26:47.696Z,28.05
2023-03-06T00:29:14.935Z,21.23
2023-03-06T00:31:44.927Z,24.42
2023-03-06T00:34:12.191Z,26.15
2023-03-06T00:36:39.431Z,22.42
2023-03-06T00:39:06.902Z,30.00
2023-03-06T00:41:33.982Z,29.83
2023-03-06T00:44:00.960Z,22.75
2023-03-06T00:46:28.351Z,23.13
2023-03-06T00:48:55.592Z,26.42
2023-03-06T00:51:23.248Z,22.67
2023-03-06T00:53:50.754Z,22.83
2023-03-06T00:56:19.947Z,28.75
2023-03-06T00:58:47.569Z,25.58
2023-03-06T01:01:14.813Z,27.40
2023-03-06T01:03:42.015Z,27.40
2023-03-06T01:06:09.392Z,25.27
2023-03-06T01:08:36.764Z,25.77
2023-03-06T01:11:04.035Z,24.20
2023-03-06T01:13:31.522Z,23.70
2023-03-06T01:16:14.856Z,23.15
2023-03-06T01:18:43.032Z,20.85
2023-03-06T01:21:10.281Z,27.75
2023-03-06T01:23:38.033Z,26.95
2023-03-06T01:26:06.860Z,27.80
2023-03-06T01:28:35.254Z,22.73
2023-03-06T01:31:02.350Z,28.77
2023-03-06T01:33:32.404Z,24.65
2023-03-06T01:36:00.586Z,23.67
2023-03-06T01:38:28.377Z,23.52
2023-03-06T01:40:55.751Z,20.90
2023-03-06T01:43:29.672Z,22.80
2023-03-06T01:46:21.869Z,20.65
2023-03-06T01:48:53.330Z,21.95
2023-03-06T01:51:21.730Z,21.73
2023-03-06T01:53:50.609Z,22.25
2023-03-06T01:56:18.930Z,22.25
2023-03-06T01:58:49.631Z,21.67
2023-03-06T02:01:18.274Z,22.00
2023-03-06T02:03:47.492Z,23.02
2023-03-06T02:06:19.871Z,22.67
2023-03-06T02:08:49.980Z,24.23
2023-03-06T02:11:25.330Z,21.25
2023-03-06T02:13:54.794Z,25.20
2023-03-06T02:16:26.671Z,25.55
2023-03-06T02:18:54.698Z,23.65
2023-03-06T02:24:42.083Z,28.15
2023-03-06T02:27:14.616Z,21.25
2023-03-06T02:29:43.888Z,28.63
2023-03-06T02:32:11.775Z,29.27
2023-03-06T02:34:42.153Z,27.70
2023-03-06T02:37:11.108Z,25.70
2023-03-06T02:39:43.172Z,24.23
2023-03-06T02:42:10.587Z,23.13
2023-03-06T02:44:38.169Z,23.88
2023-03-06T02:47:05.239Z,25.85
2023-03-06T02:49:32.564Z,26.33
2023-03-06T02:51:59.917Z,25.20
2023-03-06T02:54:30.428Z,24.48
2023-03-06T02:56:59.815Z,31.67
2023-03-06T02:59:27.361Z,24.85
2023-03-06T03:01:57.017Z,25.10
2023-03-06T03:04:24.435Z,24.17
2023-03-06T03:06:54.632Z,26.98
2023-03-06T03:09:22.383Z,26.98
2023-03-06T03:11:50.027Z,23.23
2023-03-06T03:14:17.202Z,22.50
2023-03-06T03:16:45.432Z,25.77
2023-03-06T03:19:12.801Z,28.90
2023-03-06T03:21:41.580Z,27.67
2023-03-06T03:24:09.189Z,24.50
2023-03-06T03:26:36.709Z,22.25
2023-03-06T03:29:05.289Z,23.98
2023-03-06T03:31:35.431Z,27.67
2023-03-06T03:34:02.938Z,24.33
2023-03-06T03:36:35.720Z,28.13
2023-03-06T03:39:06.388Z,31.48
2023-03-06T03:41:34.274Z,30.52
2023-03-06T03:44:01.902Z,27.88
2023-03-06T03:46:32.137Z,28.40
2023-03-06T03:49:03.516Z,28.52
2023-03-06T03:51:30.711Z,27.33
2023-03-06T03:54:11.886Z,30.05
2023-03-06T03:56:40.927Z,30.95
2023-03-06T03:59:08.746Z,29.48
2023-03-06T04:04:17.635Z,33.97
2023-03-06T04:06:45.303Z,27.10
2023-03-06T04:09:13.173Z,23.58
2023-03-06T04:11:40.489Z,23.10
2023-03-06T04:14:09.806Z,29.10
2023-03-06T04:16:37.364Z,27.00
2023-03-06T04:19:04.817Z,29.33
2023-03-06T04:21:32.184Z,28.15
2023-03-06T04:23:59.658Z,28.80
2023-03-06T04:26:28.900Z,28.67
2023-03-06T04:28:56.312Z,26.27
2023-03-06T04:31:24.125Z,31.83
2023-03-06T04:33:51.506Z,27.80
2023-03-06T04:36:33.002Z,27.80
2023-03-06T04:39:01.219Z,26.10
2023-03-06T04:41:28.962Z,28.63
2023-03-06T04:43:56.661Z,29.40
2023-03-06T04:46:25.620Z,30.17
2023-03-06T04:48:52.959Z,30.25
2023-03-06T04:51:21.034Z,29.55
2023-03-06T04:53:48.667Z,31.45
2023-03-06T04:56:15.953Z,30.23
2023-03-06T04:58:48.108Z,34.80
2023-03-06T05:01:15.682Z,29.48
2023-03-06T05:03:42.911Z,28.75
2023-03-06T05:06:09.914Z,30.73
2023-03-06T05:08:37.010Z,27.60
2023-03-06T05:11:06.723Z,25.33
2023-03-06T05:13:34.086Z,33.50
2023-03-06T05:16:06.481Z,32.08
2023-03-06T05:18:34.728Z,30.15
2023-03-06T05:21:02.612Z,24.88
2023-03-06T05:23:32.822Z,33.35
2023-03-06T05:26:00.970Z,30.27
2023-03-06T05:28:28.786Z,29.50
2023-03-06T05:30:56.768Z,30.80
2023-03-06T05:33:24.388Z,28.58
2023-03-06T05:35:51.424Z,27.08
2023-03-06T05:38:19.028Z,26.08
2023-03-06T05:40:46.687Z,24.42
2023-03-06T05:43:13.765Z,28.25
2023-03-06T05:45:41.364Z,25.80
2023-03-06T05:48:09.593Z,23.77
2023-03-06T05:50:37.194Z,31.40
2023-03-06T05:53:10.792Z,30.00
2023-03-06T05:55:38.509Z,32.58
2023-03-06T05:58:05.904Z,29.45
2023-03-06T06:00:33.251Z,32.65
2023-03-06T06:03:02.517Z,27.42
2023-03-06T06:05:32.906Z,36.47
2023-03-06T06:07:59.832Z,27.65
2023-03-06T06:10:27.131Z,25.30
2023-03-06T06:12:54.766Z,29.80
2023-03-06T06:15:24.959Z,27.10
2023-03-06T06:17:52.431Z,37.40
2023-03-06T06:20:20.227Z,34.90
2023-03-06T06:22:48.131Z,34.58
2023-03-06T06:25:15.569Z,35.38
2023-03-06T06:27:42.860Z,31.63
2023-03-06T06:30:12.672Z,34.85
2023-03-06T06:32:42.557Z,32.50
2023-03-06T06:35:10.101Z,32.30
2023-03-06T06:37:37.513Z,36.55
2023-03-06T06:40:07.301Z,32.47
2023-03-06T06:42:39.906Z,29.58
2023-03-06T06:45:11.096Z,35.28
2023-03-06T06:47:41.411Z,34.90
2023-03-06T06:50:13.049Z,33.92
2023-03-06T06:52:40.670Z,42.05
2023-03-06T06:55:08.755Z,35.20
2023-03-06T06:57:36.065Z,33.95
2023-03-06T07:00:05.517Z,37.22
2023-03-06T07:02:33.006Z,36.30
2023-03-06T07:05:05.259Z,39.10
2023-03-06T07:07:38.125Z,31.88
2023-03-06T07:10:11.518Z,37.42
2023-03-06T07:12:42.438Z,38.33
2023-03-06T07:15:12.205Z,34.88
2023-03-06T07:17:40.095Z,40.22
2023-03-06T07:20:08.950Z,38.40
2023-03-06T07:22:49.901Z,36.92
2023-03-06T07:25:21.202Z,35.78
2023-03-06T07:27:53.301Z,40.50
2023-03-06T07:30:23.425Z,37.13
2023-03-06T07:32:54.055Z,29.90
2023-03-06T07:35:29.145Z,39.60
2023-03-06T07:37:56.490Z,42.25
2023-03-06T07:40:24.731Z,33.17
2023-03-06T07:42:56.547Z,34.67
2023-03-06T07:45:29.360Z,35.90
2023-03-06T07:47:56.507Z,42.83
2023-03-06T07:50:23.582Z,43.67
2023-03-06T07:53:00.796Z,32.95
2023-03-06T07:55:28.592Z,37.65
2023-03-06T07:57:55.693Z,34.10
2023-03-06T08:00:25.760Z,35.53
2023-03-06T08:02:53.214Z,43.92
2023-03-06T08:05:21.061Z,39.03
2023-03-06T08:07:51.268Z,38.60
2023-03-06T08:10:18.580Z,34.15
2023-03-06T08:12:46.070Z,33.38
2023-03-06T08:15:14.930Z,35.95
2023-03-06T08:17:42.971Z,33.78
2023-03-06T08:20:11.187Z,34.72
2023-03-06T08:22:39.181Z,38.10
2023-03-06T08:25:07.378Z,35.00
2023-03-06T08:27:35.468Z,34.75
2023-03-06T08:30:02.584Z,37.15
2023-03-06T08:32:29.937Z,41.55
2023-03-06T08:34:57.341Z,37.17
2023-03-06T08:37:24.921Z,39.65
2023-03-06T08:39:52.944Z,36.30
2023-03-06T08:42:20.379Z,34.92
2023-03-06T08:44:47.959Z,40.33
2023-03-06T08:47:15.681Z,44.30
2023-03-06T08:49:43.275Z,39.83
2023-03-06T08:52:13.602Z,38.03
2023-03-06T08:54:40.828Z,37.17
2023-03-06T08:57:09.331Z,37.13
2023-03-06T08:59:37.213Z,36.45
2023-03-06T09:04:49.986Z,39.55
2023-03-06T09:07:17.032Z,38.42
2023-03-06T09:09:44.574Z,38.03
2023-03-06T09:12:12.170Z,37.85
2023-03-06T09:15:04.590Z,44.20
2023-03-06T09:17:34.350Z,35.85
2023-03-06T09:20:02.237Z,35.13
2023-03-06T09:22:32.941Z,36.50
2023-03-06T09:25:01.183Z,47.08
2023-03-06T09:27:31.021Z,37.17
2023-03-06T09:30:01.568Z,35.60
2023-03-06T09:32:29.104Z,40.78
2023-03-06T09:35:01.587Z,44.10
2023-03-06T09:37:31.476Z,39.85
2023-03-06T09:40:01.967Z,40.30
2023-03-06T09:42:29.530Z,39.95
2023-03-06T09:45:00.181Z,40.83
2023-03-06T09:48:00.768Z,40.17
2023-03-06T09:50:30.753Z,37.40
2023-03-06T09:53:42.885Z,37.25
2023-03-06T09:56:33.624Z,34.67
2023-03-06T09:59:26.435Z,35.28
2023-03-06T10:02:16.208Z,42.10
2023-03-06T10:04:51.865Z,40.00
2023-03-06T10:10:25.728Z,39.10
2023-03-06T10:13:27.655Z,33.22
2023-03-06T10:16:23.609Z,33.40
2023-03-06T10:18:51.138Z,41.15
2023-03-06T10:21:25.589Z,34.53
2023-03-06T10:23:55.266Z,36.40
2023-03-06T10:26:32.583Z,35.42
2023-03-06T10:30:02.040Z,35.15
2023-03-06T10:32:55.185Z,33.92
2023-03-06T10:35:30.722Z,36.10
2023-03-06T10:38:25.961Z,33.88
2023-03-06T10:41:07.157Z,30.48
2023-03-06T10:43:36.710Z,32.35
2023-03-06T10:46:05.491Z,30.42
2023-03-06T10:48:36.191Z,33.03
2023-03-06T10:51:22.086Z,28.25
2023-03-06T10:53:52.332Z,24.63
2023-03-06T10:56:34.910Z,24.10
2023-03-06T10:59:29.460Z,18.83
2023-03-06T11:02:31.076Z,15.27
2023-03-06T11:05:01.308Z,21.10
2023-03-06T11:07:31.216Z,19.73
2023-03-06T11:09:58.873Z,15.85
2023-03-06T11:12:32.528Z,16.45
2023-03-06T11:15:12.712Z,16.15
2023-03-06T11:20:53.013Z,20.05
2023-03-06T11:23:30.064Z,16.25
2023-03-06T11:26:21.712Z,17.13
2023-03-06T11:29:01.569Z,18.15
2023-03-06T11:31:33.586Z,19.67
2023-03-06T11:34:23.446Z,16.52
2023-03-06T11:37:08.346Z,13.75
2023-03-06T11:39:49.461Z,15.43
2023-03-06T11:42:26.285Z,14.75
2023-03-06T11:45:13.981Z,13.65
2023-03-06T11:47:42.587Z,17.45
2023-03-06T11:50:28.314Z,24.35
2023-03-06T11:53:08.310Z,16.80
2023-03-06T11:55:50.312Z,18.95
2023-03-06T11:58:42.688Z,17.80
2023-03-06T12:01:12.984Z,18.42
2023-03-06T12:06:27.763Z,16.65
2023-03-06T12:09:07.090Z,16.83
2023-03-06T12:11:51.670Z,18.98
2023-03-06T12:14:42.678Z,12.98
2023-03-06T12:17:39.697Z,16.35
2023-03-06T12:20:43.600Z,15.82
2023-03-06T12:23:20.749Z,16.30
2023-03-06T12:26:06.835Z,17.13
2023-03-06T12:29:24.978Z,15.55
2023-03-06T12:32:08.882Z,19.35
2023-03-06T12:35:19.107Z,12.98
2023-03-06T12:38:20.289Z,18.55
2023-03-06T12:41:03.162Z,14.98
2023-03-06T12:44:13.543Z,15.10
2023-03-06T12:46:51.838Z,16.95
2023-03-06T12:49:33.035Z,16.00
2023-03-06T12:52:06.814Z,16.25
2023-03-06T12:54:39.296Z,17.77
2023-03-06T12:57:09.384Z,19.02
2023-03-06T13:02:37.648Z,16.17
2023-03-06T13:05:10.644Z,18.02
2023-03-06T13:07:59.376Z,14.23
2023-03-06T13:10:36.302Z,17.73
2023-03-06T13:13:24.773Z,16.15
2023-03-06T13:16:04.202Z,17.27
2023-03-06T13:18:35.489Z,16.08
2023-03-06T13:21:04.594Z,17.15
2023-03-06T13:23:35.749Z,16.58
2023-03-06T13:26:25.477Z,16.52
2023-03-06T13:28:58.256Z,15.30
2023-03-06T13:31:54.737Z,16.38
2023-03-06T13:34:31.739Z,17.90
2023-03-06T13:37:14.219Z,18.85
2023-03-06T13:42:38.103Z,16.25
2023-03-06T13:45:47.355Z,14.32
2023-03-06T13:48:45.476Z,20.85
2023-03-06T13:51:42.923Z,16.50
2023-03-06T13:54:48.202Z,15.55
2023-03-06T13:57:52.669Z,15.35
2023-03-06T14:00:49.508Z,14.48
2023-03-06T14:03:20.323Z,15.57
2023-03-06T14:05:50.159Z,16.10
2023-03-06T14:08:27.604Z,16.05
2023-03-06T14:11:04.758Z,16.90
2023-03-06T14:13:47.192Z,15.52
2023-03-06T14:16:49.840Z,18.05
2023-03-06T14:19:18.812Z,18.75
2023-03-06T14:21:50.148Z,18.35
2023-03-06T14:24:20.181Z,18.85
2023-03-06T14:26:50.883Z,15.73
2023-03-06T14:31:56.507Z,18.60
2023-03-06T14:34:35.473Z,16.60
2023-03-06T14:37:08.259Z,19.58
2023-03-06T14:39:38.293Z,17.08
2023-03-06T14:42:21.090Z,18.02
2023-03-06T14:44:49.938Z,15.75
2023-03-06T14:47:31.892Z,18.17
2023-03-06T14:50:38.515Z,18.45
2023-03-06T14:53:21.424Z,14.15
2023-03-06T14:55:56.718Z,16.35
2023-03-06T14:58:29.492Z,18.17
2023-03-06T15:01:01.346Z,15.38
2023-03-06T15:03:43.231Z,16.83
2023-03-06T15:06:25.674Z,15.45
2023-03-06T15:09:08.360Z,15.23
2023-03-06T15:12:20.903Z,13.00
2023-03-06T15:15:00.471Z,16.70
2023-03-06T15:17:27.952Z,12.25
2023-03-06T15:19:58.777Z,15.27
2023-03-06T15:25:17.805Z,13.52
2023-03-06T15:28:22.679Z,12.82
2023-03-06T15:31:20.730Z,13.02
2023-03-06T15:34:23.971Z,14.32
2023-03-06T15:36:57.821Z,16.02
2023-03-06T15:39:40.703Z,17.58
2023-03-06T15:42:22.094Z,14.77
2023-03-06T15:44:53.560Z,14.93
2023-03-06T15:47:22.450Z,11.77
2023-03-06T15:49:52.603Z,12.60
2023-03-06T15:52:21.169Z,15.35
2023-03-06T15:54:48.974Z,16.25
2023-03-06T15:57:20.136Z,11.63
2023-03-06T15:59:49.556Z,12.88
2023-03-06T16:02:19.199Z,10.23
2023-03-06T16:04:47.330Z,11.02
2023-03-06T16:07:16.081Z,12.15
2023-03-06T16:09:44.284Z,11.23
2023-03-06T16:12:17.885Z,10.80
2023-03-06T16:14:47.398Z,11.63
2023-03-06T16:17:15.409Z,10.75
2023-03-06T16:19:43.375Z,10.82
2023-03-06T16:22:10.993Z,9.93
2023-03-06T16:24:39.154Z,11.50
2023-03-06T16:27:07.118Z,12.88
2023-03-06T16:29:34.275Z,10.90
2023-03-06T16:32:02.135Z,11.32
2023-03-06T16:34:30.302Z,10.30
2023-03-06T16:36:58.244Z,11.55
2023-03-06T16:39:25.941Z,10.88
2023-03-06T16:41:53.396Z,12.32
2023-03-06T16:44:21.532Z,11.98
2023-03-06T16:46:50.313Z,13.82
2023-03-06T16:49:22.516Z,10.63
2023-03-06T16:51:50.846Z,12.30
2023-03-06T16:54:18.604Z,11.23
2023-03-06T16:56:46.211Z,11.52
2023-03-06T16:59:13.732Z,11.70
2023-03-06T17:01:45.115Z,13.93
2023-03-06T17:04:12.765Z,10.27
2023-03-06T17:06:40.250Z,10.55
2023-03-06T17:09:07.587Z,11.55
2023-03-06T17:11:38.871Z,13.02
2023-03-06T17:14:08.316Z,9.52
2023-03-06T17:16:43.400Z,9.27
2023-03-06T17:19:15.311Z,9.45
2023-03-06T17:21:43.875Z,12.85
2023-03-06T17:24:11.479Z,11.52
2023-03-06T17:26:48.668Z,10.65
2023-03-06T17:29:15.918Z,9.07
2023-03-06T17:31:49.414Z,11.05
2023-03-06T17:34:16.866Z,9.48
2023-03-06T17:36:44.260Z,10.52
2023-03-06T17:39:13.009Z,12.50
2023-03-06T17:41:40.888Z,9.93
2023-03-06T17:44:08.259Z,9.93
2023-03-06T17:46:35.637Z,11.32
2023-03-06T17:49:03.101Z,12.05
2023-03-06T17:51:30.719Z,10.48
2023-03-06T17:53:58.258Z,13.65
2023-03-06T17:56:27.756Z,10.68
2023-03-06T17:58:55.688Z,9.52
2023-03-06T18:01:27.575Z,9.40
2023-03-06T18:03:54.981Z,10.02
2023-03-06T18:06:22.481Z,11.40
2023-03-06T18:08:52.700Z,10.48
2023-03-06T18:13:49.929Z,12.90
2023-03-06T18:16:20.975Z,12.00
2023-03-06T18:18:51.433Z,10.25
2023-03-06T18:23:53.646Z,10.32
2023-03-06T18:26:26.869Z,9.32
2023-03-06T18:28:58.172Z,12.38
2023-03-06T18:31:40.770Z,12.52
2023-03-06T18:34:18.357Z,9.18
2023-03-06T18:36:47.439Z,10.23
2023-03-06T18:39:15.936Z,10.38
2023-03-06T18:41:43.547Z,9.85
2023-03-06T18:44:15.656Z,12.20
2023-03-06T18:46:43.718Z,10.10
2023-03-06T18:49:13.087Z,10.15
2023-03-06T18:51:43.490Z,9.82
2023-03-06T18:54:12.110Z,9.07
2023-03-06T18:56:44.171Z,11.55
2023-03-06T18:59:22.853Z,12.23
2023-03-06T19:01:51.162Z,11.70
2023-03-06T19:04:18.503Z,11.63
2023-03-06T19:06:46.094Z,13.70
2023-03-06T19:09:13.126Z,10.82
2023-03-06T19:11:41.886Z,10.43
2023-03-06T19:14:09.171Z,11.57
2023-03-06T19:16:36.232Z,11.77
2023-03-06T19:19:03.552Z,10.70
2023-03-06T19:21:30.918Z,11.73
2023-03-06T19:23:58.553Z,12.15
2023-03-06T19:26:28.164Z,11.60
2023-03-06T19:29:02.248Z,11.90
2023-03-06T19:31:29.699Z,10.63
2023-03-06T19:33:57.521Z,11.73
2023-03-06T19:36:28.769Z,11.85
2023-03-06T19:38:57.966Z,10.68
2023-03-06T19:41:26.218Z,11.77
2023-03-06T19:43:58.923Z,12.10
2023-03-06T19:46:27.362Z,10.43
2023-03-06T19:48:56.661Z,10.43
2023-03-06T19:51:25.186Z,14.65
2023-03-06T19:53:53.138Z,10.35
2023-03-06T19:56:23.619Z,13.90
2023-03-06T19:58:51.669Z,12.95
2023-03-06T20:01:21.313Z,11.02
2023-03-06T20:03:50.677Z,10.65
2023-03-06T20:06:20.968Z,14.25
2023-03-06T20:08:48.642Z,9.85
2023-03-06T20:11:20.108Z,10.95
2023-03-06T20:13:50.727Z,13.23
2023-03-06T20:16:20.847Z,10.35
2023-03-06T20:18:48.106Z,10.27
2023-03-06T20:21:15.645Z,13.65
2023-03-06T20:23:43.379Z,13.80
2023-03-06T20:26:13.863Z,10.82
2023-03-06T20:28:42.466Z,12.05
2023-03-06T20:31:13.535Z,9.82
2023-03-06T20:33:43.386Z,9.90
2023-03-06T20:36:16.510Z,10.48
2023-03-06T20:38:44.628Z,12.23
2023-03-06T20:41:16.719Z,12.02
2023-03-06T20:43:46.820Z,12.77
2023-03-06T20:46:14.727Z,13.48
2023-03-06T20:48:43.140Z,13.40
2023-03-06T20:51:28.781Z,10.55
2023-03-06T20:53:56.528Z,13.48
2023-03-06T20:56:29.180Z,12.82
2023-03-06T20:58:57.472Z,11.05
2023-03-06T21:01:30.183Z,11.57
2023-03-06T21:03:59.638Z,10.60
2023-03-06T21:06:28.551Z,11.20
2023-03-06T21:09:02.333Z,12.85
2023-03-06T21:11:40.915Z,12.00
2023-03-06T21:14:08.273Z,10.68
2023-03-06T21:16:36.082Z,13.30
2023-03-06T21:19:05.602Z,12.63
2023-03-06T21:21:35.301Z,11.30
2023-03-06T21:24:08.122Z,13.43
2023-03-06T21:26:36.062Z,10.57
2023-03-06T21:29:03.970Z,12.10
2023-03-06T21:31:32.132Z,10.23
2023-03-06T21:34:00.056Z,11.10
2023-03-06T21:36:36.373Z,11.20
2023-03-06T21:39:07.715Z,11.13
2023-03-06T21:41:35.434Z,12.88
2023-03-06T21:44:04.926Z,12.75
2023-03-06T21:46:33.017Z,12.35
2023-03-06T21:49:04.798Z,11.40
2023-03-06T21:51:35.235Z,11.93
2023-03-06T21:54:03.988Z,8.52
2023-03-06T21:56:33.701Z,11.73
2023-03-06T21:59:01.750Z,12.77
2023-03-06T22:01:37.109Z,11.63
2023-03-06T22:04:10.650Z,10.65
2023-03-06T22:06:44.325Z,15.65
2023-03-06T22:09:13.931Z,13.25
2023-03-06T22:11:42.488Z,10.40
2023-03-06T22:14:12.737Z,9.82
2023-03-06T22:19:10.130Z,12.13
2023-03-06T22:21:38.689Z,14.38
2023-03-06T22:24:13.001Z,10.30
2023-03-06T22:26:47.823Z,11.25
2023-03-06T22:29:15.450Z,12.10
2023-03-06T22:31:44.338Z,14.15
2023-03-06T22:34:11.792Z,11.25
2023-03-06T22:36:45.002Z,11.38
2023-03-06T22:39:13.846Z,10.52
2023-03-06T22:41:41.790Z,10.15
2023-03-06T22:44:19.660Z,10.90
2023-03-06T22:46:47.785Z,11.25
2023-03-06T22:49:17.106Z,12.10
2023-03-06T22:51:44.811Z,10.80
2023-03-06T22:54:14.864Z,11.82
2023-03-06T22:56:42.264Z,11.02
2023-03-06T22:59:09.613Z,12.45
2023-03-06T23:01:37.338Z,11.55
2023-03-06T23:04:11.445Z,9.50
2023-03-06T23:06:41.400Z,10.75
2023-03-06T23:09:21.830Z,12.68
2023-03-06T23:11:49.953Z,12.95
2023-03-06T23:14:18.245Z,11.70
2023-03-06T23:16:46.453Z,12.23
2023-03-06T23:19:13.867Z,11.18
2023-03-06T23:21:43.770Z,13.70
2023-03-06T23:24:11.329Z,14.60
2023-03-06T23:26:49.487Z,14.20
2023-03-06T23:29:24.170Z,12.60
2023-03-06T23:31:58.297Z,10.20
2023-03-06T23:34:25.757Z,10.65
2023-03-06T23:36:56.458Z,14.57
2023-03-06T23:39:24.052Z,14.38
2023-03-06T23:41:51.687Z,12.60
2023-03-06T23:44:19.234Z,11.10
2023-03-06T23:46:46.715Z,9.70
2023-03-06T23:49:14.150Z,9.85
2023-03-06T23:51:42.760Z,12.20
2023-03-06T23:54:10.609Z,11.27
2023-03-06T23:56:41.653Z,11.10
